Youngsville, New Mexico
Current Conditions -  °F | °C
As of 6:55 AM on Saturday 22 Nov 2014 (Local Time) from KLAM Reporting Station
Clear Clear  
Wind Chill: 31°   Ceiling: Unl
Heat Index: 31°   Visibility: 10mi
Dew Point: 19°   Wind: 0mph
Humidity: 62%   Direction: NA
Pressure: 30.1"   Gusts: NA
Location:  36.19°N, 106.56°W
Report Text: KLAM 221355Z AUTO 00000KT 10SM CLR 00/M07 A3010 RMK AO2 T10051070
Loading
Personal Weather Stations






























Interactive Weather Map New forecast layout! Learn more

10-Day Weather Forecast

Advertisements
Track Severe Weather on mobile